createdAt,value
2019-01-16T00:02:11.324Z,15.70
2019-01-16T00:04:43.814Z,12.75
2019-01-16T00:07:19.056Z,20.43
2019-01-16T00:10:08.808Z,11.08
2019-01-16T00:12:41.257Z,12.80
2019-01-16T00:15:29.895Z,12.07
2019-01-16T00:18:17.468Z,12.60
2019-01-16T00:21:06.464Z,14.93
2019-01-16T00:23:39.004Z,15.15
2019-01-16T00:26:24.794Z,12.73
2019-01-16T00:28:58.780Z,16.07
2019-01-16T00:31:37.246Z,18.65
2019-01-16T00:34:13.006Z,10.58
2019-01-16T00:36:53.220Z,11.18
2019-01-16T00:39:42.112Z,11.40
2019-01-16T00:42:23.670Z,16.90
2019-01-16T00:44:59.109Z,18.07
2019-01-16T00:47:32.701Z,12.10
2019-01-16T00:50:14.773Z,18.15
2019-01-16T00:52:53.285Z,12.07
2019-01-16T00:55:26.566Z,11.40
2019-01-16T00:58:09.791Z,11.90
2019-01-16T01:00:58.750Z,12.60
2019-01-16T01:03:37.363Z,10.82
2019-01-16T01:06:09.836Z,9.30
2019-01-16T01:08:43.201Z,15.50
2019-01-16T01:11:15.685Z,15.63
2019-01-16T01:14:03.527Z,21.52
2019-01-16T01:16:39.203Z,11.20
2019-01-16T01:19:15.759Z,6.85
2019-01-16T01:21:48.305Z,7.72
2019-01-16T01:24:29.769Z,14.50
2019-01-16T01:27:05.489Z,6.70
2019-01-16T01:29:51.178Z,10.45
2019-01-16T01:32:23.681Z,8.30
2019-01-16T01:34:56.181Z,11.85
2019-01-16T01:37:44.897Z,13.45
2019-01-16T01:40:17.416Z,10.20
2019-01-16T01:42:52.667Z,13.10
2019-01-16T01:45:27.906Z,13.90
2019-01-16T01:48:00.383Z,9.43
2019-01-16T01:50:32.857Z,8.15
2019-01-16T01:53:21.593Z,7.95
2019-01-16T01:56:06.395Z,13.40
2019-01-16T01:58:47.918Z,8.15
2019-01-16T02:01:24.383Z,13.00
2019-01-16T02:04:13.336Z,7.00
2019-01-16T02:06:45.885Z,8.58
2019-01-16T02:09:24.591Z,8.20
2019-01-16T02:12:13.446Z,8.80
2019-01-16T02:15:02.212Z,6.90
2019-01-16T02:17:34.778Z,6.37
2019-01-16T02:20:29.972Z,14.13
2019-01-16T02:23:05.582Z,10.10
2019-01-16T02:25:51.497Z,9.13
2019-01-16T02:28:40.063Z,15.63
2019-01-16T02:31:24.849Z,9.40
2019-01-16T02:33:55.496Z,14.13
2019-01-16T02:36:30.666Z,11.10
2019-01-16T02:39:07.097Z,16.02
2019-01-16T02:41:40.644Z,14.58
2019-01-16T02:44:11.225Z,13.80
2019-01-16T02:46:52.967Z,7.30
2019-01-16T02:49:41.244Z,6.25
2019-01-16T02:52:14.813Z,8.35
2019-01-16T02:54:45.386Z,11.15
2019-01-16T02:57:23.914Z,8.58
2019-01-16T02:59:56.387Z,12.13
2019-01-16T03:02:32.802Z,12.30
2019-01-16T03:05:05.652Z,10.05
2019-01-16T03:07:46.968Z,10.72
2019-01-16T03:10:25.169Z,8.35
2019-01-16T03:13:00.602Z,7.62
2019-01-16T03:15:42.336Z,13.45
2019-01-16T03:18:31.337Z,9.73
2019-01-16T03:21:20.246Z,9.28
2019-01-16T03:23:52.734Z,16.65
2019-01-16T03:26:31.033Z,15.72
2019-01-16T03:29:04.653Z,9.73
2019-01-16T03:31:45.952Z,6.28
2019-01-16T03:34:27.449Z,8.68
2019-01-16T03:37:07.031Z,11.93
2019-01-16T03:39:51.483Z,6.28
2019-01-16T03:42:23.919Z,9.68
2019-01-16T03:45:05.358Z,14.63
2019-01-16T03:47:49.924Z,10.98
2019-01-16T03:50:25.107Z,8.60
2019-01-16T03:53:13.083Z,14.05
2019-01-16T03:55:45.540Z,8.10
2019-01-16T03:58:23.965Z,11.38
2019-01-16T04:01:05.423Z,13.58
2019-01-16T04:03:46.759Z,7.35
2019-01-16T04:06:26.708Z,6.58
2019-01-16T04:09:02.003Z,6.03
2019-01-16T04:11:34.528Z,11.30
2019-01-16T04:14:13.241Z,11.43
2019-01-16T04:16:48.374Z,7.87
2019-01-16T04:19:24.822Z,7.53
2019-01-16T04:21:57.255Z,7.70
2019-01-16T04:24:35.547Z,13.80
2019-01-16T04:27:11.045Z,9.63
2019-01-16T04:29:48.743Z,8.90
2019-01-16T04:32:27.240Z,12.80
2019-01-16T04:35:08.698Z,9.78
2019-01-16T04:37:44.261Z,7.72
2019-01-16T04:40:25.779Z,5.15
2019-01-16T04:43:01.005Z,6.60
2019-01-16T04:45:33.455Z,8.13
2019-01-16T04:48:09.003Z,4.97
2019-01-16T04:50:41.572Z,7.47
2019-01-16T04:53:14.204Z,9.78
2019-01-16T04:55:55.977Z,5.72
2019-01-16T04:58:28.453Z,8.83
2019-01-16T05:01:16.183Z,9.48
2019-01-16T05:04:06.961Z,6.97
2019-01-16T05:06:39.501Z,20.75
2019-01-16T05:09:15.093Z,13.80
2019-01-16T05:11:50.412Z,14.45
2019-01-16T05:14:39.302Z,11.10
2019-01-16T05:17:11.820Z,6.92
2019-01-16T05:19:42.424Z,11.38
2019-01-16T05:22:17.593Z,4.60
2019-01-16T05:24:55.973Z,7.05
2019-01-16T05:27:28.504Z,6.22
2019-01-16T05:30:00.976Z,7.67
2019-01-16T05:32:33.489Z,4.85
2019-01-16T05:35:05.306Z,10.05
2019-01-16T05:37:53.979Z,5.92
2019-01-16T05:40:26.455Z,7.80
2019-01-16T05:43:11.059Z,6.28
2019-01-16T05:45:43.647Z,11.30
2019-01-16T05:48:28.186Z,8.25
2019-01-16T05:51:03.342Z,10.60
2019-01-16T05:53:41.535Z,9.95
2019-01-16T05:56:30.413Z,8.33
2019-01-16T05:59:05.632Z,10.05
2019-01-16T06:01:36.268Z,4.05
2019-01-16T06:04:08.787Z,15.15
2019-01-16T06:06:57.587Z,5.05
2019-01-16T06:09:32.981Z,8.85
2019-01-16T06:12:21.883Z,7.33
2019-01-16T06:14:52.476Z,4.85
2019-01-16T06:17:33.946Z,7.28
2019-01-16T06:20:21.385Z,6.40
2019-01-16T06:23:05.755Z,6.25
2019-01-16T06:25:38.336Z,17.35
2019-01-16T06:28:21.621Z,18.42
2019-01-16T06:30:57.043Z,9.35
2019-01-16T06:33:29.660Z,5.37
2019-01-16T06:36:11.728Z,7.42
2019-01-16T06:38:47.487Z,10.82
2019-01-16T06:41:26.352Z,5.62
2019-01-16T06:43:58.883Z,11.10
2019-01-16T06:46:49.714Z,9.98
2019-01-16T06:49:24.926Z,7.47
2019-01-16T06:51:58.479Z,10.58
2019-01-16T06:54:30.998Z,11.83
2019-01-16T06:57:12.592Z,8.28
2019-01-16T06:59:45.859Z,9.33
2019-01-16T07:02:21.368Z,8.50
2019-01-16T07:05:08.958Z,8.05
2019-01-16T07:07:41.428Z,6.72
2019-01-16T07:10:14.120Z,10.50
2019-01-16T07:12:52.743Z,6.00
2019-01-16T07:15:31.334Z,10.78
2019-01-16T07:18:02.001Z,5.80
2019-01-16T07:20:43.467Z,10.75
2019-01-16T07:23:19.281Z,7.35
2019-01-16T07:26:01.096Z,5.45
2019-01-16T07:28:45.985Z,12.30
2019-01-16T07:31:21.559Z,10.05
2019-01-16T07:33:54.147Z,11.33
2019-01-16T07:36:35.616Z,12.98
2019-01-16T07:39:13.338Z,6.67
2019-01-16T07:41:45.857Z,5.85
2019-01-16T07:44:30.542Z,12.90
2019-01-16T07:47:03.052Z,10.80
2019-01-16T07:49:41.395Z,7.95
2019-01-16T07:52:13.889Z,7.05
2019-01-16T07:54:44.581Z,15.50
2019-01-16T07:57:17.058Z,16.77
2019-01-16T08:00:05.687Z,5.05
2019-01-16T08:02:38.396Z,7.35
2019-01-16T08:05:12.218Z,5.90
2019-01-16T08:07:42.850Z,6.50
2019-01-16T08:10:24.502Z,8.95
2019-01-16T08:12:55.135Z,5.58
2019-01-16T08:15:39.761Z,3.55
2019-01-16T08:18:28.738Z,7.55
2019-01-16T08:21:14.317Z,10.00
2019-01-16T08:23:46.767Z,9.65
2019-01-16T08:26:19.311Z,3.75
2019-01-16T08:28:54.895Z,7.05
2019-01-16T08:31:27.411Z,8.68
2019-01-16T08:34:02.746Z,10.48
2019-01-16T08:36:38.318Z,7.83
2019-01-16T08:39:11.494Z,8.93
2019-01-16T08:41:46.753Z,5.47
2019-01-16T08:44:19.274Z,11.12
2019-01-16T08:46:51.817Z,4.62
2019-01-16T08:49:40.280Z,5.83
2019-01-16T08:52:16.764Z,6.90
2019-01-16T08:54:47.500Z,3.80
2019-01-16T08:57:32.047Z,3.80
2019-01-16T09:00:17.763Z,6.40
2019-01-16T09:03:06.422Z,8.25
2019-01-16T09:05:55.304Z,3.67
2019-01-16T09:08:27.821Z,7.92
2019-01-16T09:11:00.361Z,6.10
2019-01-16T09:13:32.889Z,4.47
2019-01-16T09:16:23.890Z,8.38
2019-01-16T09:18:56.401Z,6.05
2019-01-16T09:21:29.014Z,5.78
2019-01-16T09:24:04.434Z,6.67
2019-01-16T09:26:42.723Z,3.70
2019-01-16T09:29:17.912Z,4.55
2019-01-16T09:32:02.652Z,3.62
2019-01-16T09:34:43.959Z,3.62
2019-01-16T09:37:22.168Z,7.70
2019-01-16T09:39:52.715Z,6.28
2019-01-16T09:42:41.587Z,5.80
2019-01-16T09:45:20.102Z,6.72
2019-01-16T09:48:09.234Z,3.62
2019-01-16T09:50:56.929Z,10.58
2019-01-16T09:53:32.522Z,6.22
2019-01-16T09:56:20.019Z,12.03
2019-01-16T09:58:52.558Z,12.43
2019-01-16T10:01:30.726Z,12.98
2019-01-16T10:04:20.595Z,5.22
2019-01-16T10:06:59.012Z,8.43
2019-01-16T10:09:37.237Z,4.37
2019-01-16T10:12:07.865Z,6.72
2019-01-16T10:14:56.464Z,6.42
2019-01-16T10:17:31.846Z,8.00
2019-01-16T10:20:11.650Z,9.35
2019-01-16T10:22:47.238Z,5.03
2019-01-16T10:25:32.636Z,5.40
2019-01-16T10:28:05.152Z,8.55
2019-01-16T10:30:48.766Z,5.42
2019-01-16T10:33:36.300Z,4.65
2019-01-16T10:36:07.425Z,6.58
2019-01-16T10:38:51.802Z,7.47
2019-01-16T10:41:24.262Z,10.58
2019-01-16T10:44:05.647Z,8.05
2019-01-16T10:46:56.365Z,10.58
2019-01-16T10:49:43.954Z,9.25
2019-01-16T10:52:16.474Z,3.52
2019-01-16T10:55:05.387Z,15.15
2019-01-16T10:57:37.895Z,6.87
2019-01-16T11:00:15.150Z,8.83
2019-01-16T11:03:03.033Z,6.00
2019-01-16T11:05:38.106Z,4.05
2019-01-16T11:08:08.837Z,6.22
2019-01-16T11:10:39.467Z,5.80
2019-01-16T11:13:13.326Z,8.43
2019-01-16T11:15:45.911Z,8.58
2019-01-16T11:18:21.029Z,4.70
2019-01-16T11:21:11.071Z,4.60
2019-01-16T11:23:44.915Z,6.67
2019-01-16T11:26:26.462Z,8.83
2019-01-16T11:28:57.025Z,5.03
2019-01-16T11:31:33.661Z,12.18
2019-01-16T11:34:06.193Z,6.45
2019-01-16T11:36:55.049Z,8.00
2019-01-16T11:39:27.560Z,7.72
2019-01-16T11:42:00.103Z,11.18
2019-01-16T11:44:47.700Z,8.33
2019-01-16T11:47:38.669Z,5.42
2019-01-16T11:50:11.814Z,2.62
2019-01-16T11:52:59.428Z,6.78
2019-01-16T11:55:37.811Z,3.70
2019-01-16T11:58:20.570Z,13.65
2019-01-16T12:00:53.053Z,6.20
2019-01-16T12:03:41.841Z,4.85
2019-01-16T12:06:15.361Z,1.45
2019-01-16T12:08:50.639Z,2.85
2019-01-16T12:11:23.076Z,1.30
2019-01-16T12:14:02.869Z,5.78
2019-01-16T12:16:33.516Z,7.17
2019-01-16T12:19:06.893Z,6.45
2019-01-16T12:21:43.466Z,6.50
2019-01-16T12:24:32.324Z,7.80
2019-01-16T12:27:20.834Z,2.77
2019-01-16T12:30:11.870Z,12.85
2019-01-16T12:32:53.319Z,4.35
2019-01-16T12:35:36.943Z,5.45
2019-01-16T12:38:15.235Z,3.12
2019-01-16T12:40:45.863Z,7.25
2019-01-16T12:43:25.574Z,6.15
2019-01-16T12:46:06.867Z,3.72
2019-01-16T12:48:39.403Z,7.50
2019-01-16T12:51:12.721Z,2.90
2019-01-16T12:53:51.978Z,19.82
2019-01-16T12:56:40.403Z,5.05
2019-01-16T12:59:19.003Z,6.20
2019-01-16T13:01:51.523Z,6.53
2019-01-16T13:04:40.380Z,7.45
2019-01-16T13:07:31.095Z,11.03
2019-01-16T13:10:09.561Z,5.25
2019-01-16T13:12:58.344Z,8.53
2019-01-16T13:15:30.816Z,22.52
2019-01-16T13:18:04.341Z,2.20
2019-01-16T13:20:53.106Z,2.27
2019-01-16T13:23:34.519Z,3.85
2019-01-16T13:26:23.142Z,2.58
2019-01-16T13:29:04.714Z,2.33
2019-01-16T13:31:40.193Z,6.00
2019-01-16T13:34:28.818Z,3.60
2019-01-16T13:37:04.348Z,3.75
2019-01-16T13:39:36.815Z,2.42
2019-01-16T13:42:24.356Z,1.87
2019-01-16T13:45:03.044Z,3.00
2019-01-16T13:47:52.080Z,4.80
2019-01-16T13:50:25.501Z,2.17
2019-01-16T13:53:16.064Z,1.80
2019-01-16T13:56:03.983Z,5.97
2019-01-16T13:58:36.423Z,2.05
2019-01-16T14:01:08.962Z,1.77
2019-01-16T14:03:47.280Z,2.47
2019-01-16T14:06:36.053Z,1.85
2019-01-16T14:09:14.461Z,3.47
2019-01-16T14:11:48.168Z,2.90
2019-01-16T14:14:20.675Z,1.90
2019-01-16T14:17:11.544Z,2.08
2019-01-16T14:19:44.054Z,3.58
2019-01-16T14:22:17.563Z,1.72
2019-01-16T14:25:02.364Z,5.83
2019-01-16T14:27:51.299Z,1.20
2019-01-16T14:30:39.935Z,2.75
2019-01-16T14:33:30.999Z,1.65
2019-01-16T14:36:18.463Z,3.05
2019-01-16T14:39:05.938Z,4.80
2019-01-16T14:41:41.396Z,3.77
2019-01-16T14:44:22.840Z,2.65
2019-01-16T14:46:58.022Z,3.10
2019-01-16T14:49:32.943Z,9.23
2019-01-16T14:52:08.396Z,4.47
2019-01-16T14:54:57.092Z,1.67
2019-01-16T14:57:43.139Z,11.15
2019-01-16T15:00:16.383Z,1.35
2019-01-16T15:02:51.904Z,3.45
2019-01-16T15:05:40.733Z,3.30
2019-01-16T15:08:13.220Z,1.70
2019-01-16T15:10:45.772Z,3.45
2019-01-16T15:13:34.861Z,2.37
2019-01-16T15:16:24.109Z,5.90
2019-01-16T15:19:12.569Z,1.77
2019-01-16T15:21:45.040Z,1.47
2019-01-16T15:24:29.565Z,6.12
2019-01-16T15:27:07.649Z,14.75
2019-01-16T15:29:56.358Z,2.35
2019-01-16T15:32:31.712Z,2.30
2019-01-16T15:35:20.536Z,1.92
2019-01-16T15:38:08.052Z,2.15
2019-01-16T15:40:47.850Z,1.50
2019-01-16T15:43:20.359Z,1.62
2019-01-16T15:45:58.791Z,3.33
2019-01-16T15:48:29.449Z,6.47
2019-01-16T15:51:12.761Z,5.17
2019-01-16T15:53:45.185Z,9.18
2019-01-16T15:56:34.048Z,13.58
2019-01-16T15:59:06.546Z,10.13
2019-01-16T16:01:47.869Z,18.80
2019-01-16T16:04:20.299Z,10.18
2019-01-16T16:07:10.980Z,9.08
2019-01-16T16:09:47.442Z,6.17
2019-01-16T16:12:22.608Z,5.55
2019-01-16T16:14:55.982Z,4.70
2019-01-16T16:17:31.396Z,4.28
2019-01-16T16:20:06.928Z,9.88
2019-01-16T16:22:55.851Z,5.20
2019-01-16T16:25:43.501Z,7.10
2019-01-16T16:28:16.210Z,9.03
2019-01-16T16:31:04.739Z,8.60
2019-01-16T16:33:37.208Z,12.47
2019-01-16T16:36:07.829Z,10.55
2019-01-16T16:38:52.789Z,12.53
2019-01-16T16:41:25.231Z,10.72
2019-01-16T16:44:04.878Z,17.52
2019-01-16T16:46:35.605Z,17.75
2019-01-16T16:49:08.290Z,21.02
2019-01-16T16:51:51.251Z,14.80
2019-01-16T16:54:39.904Z,18.73
2019-01-16T16:57:15.659Z,19.87
2019-01-16T17:00:03.103Z,36.23
2019-01-16T17:02:38.507Z,50.38
2019-01-16T17:05:14.240Z,63.15
2019-01-16T17:07:46.757Z,63.75
2019-01-16T17:10:28.321Z,36.58
2019-01-16T17:13:00.878Z,39.00
2019-01-16T17:15:33.437Z,32.35
2019-01-16T17:18:11.916Z,18.90
2019-01-16T17:20:47.286Z,27.77
2019-01-16T17:23:36.495Z,27.07
2019-01-16T17:26:26.508Z,16.00
2019-01-16T17:29:15.829Z,27.25
2019-01-16T17:32:04.851Z,20.57
2019-01-16T17:34:49.813Z,25.45
2019-01-16T17:37:20.727Z,26.65
2019-01-16T17:40:11.948Z,31.40
2019-01-16T17:43:00.887Z,14.68
2019-01-16T17:45:33.749Z,18.17
2019-01-16T17:48:13.883Z,23.77
2019-01-16T17:50:58.525Z,25.25
2019-01-16T17:53:40.189Z,24.52
2019-01-16T17:56:18.753Z,15.80
2019-01-16T17:59:00.500Z,16.55
2019-01-16T18:01:34.120Z,18.65
2019-01-16T18:04:04.984Z,12.35
2019-01-16T18:06:37.584Z,15.98
2019-01-16T18:09:13.577Z,20.62
2019-01-16T18:12:02.726Z,17.15
2019-01-16T18:14:33.545Z,16.48
2019-01-16T18:17:04.353Z,21.00
2019-01-16T18:19:55.339Z,29.48
2019-01-16T18:22:27.899Z,46.55
2019-01-16T18:25:09.140Z,18.73
2019-01-16T18:27:42.532Z,23.38
2019-01-16T18:30:27.596Z,16.82
2019-01-16T18:33:15.305Z,13.62
2019-01-16T18:36:04.019Z,22.15
2019-01-16T18:38:36.747Z,16.27
2019-01-16T18:41:12.438Z,12.20
2019-01-16T18:43:53.897Z,10.23
2019-01-16T18:46:26.582Z,14.23
2019-01-16T18:49:04.853Z,15.85
2019-01-16T18:51:37.333Z,19.98
2019-01-16T18:54:14.256Z,20.45
2019-01-16T18:56:57.039Z,17.80
2019-01-16T18:59:27.643Z,21.20
2019-01-16T19:02:03.358Z,40.05
2019-01-16T19:04:52.780Z,53.85
2019-01-16T19:07:23.638Z,24.80
2019-01-16T19:09:58.896Z,41.68
2019-01-16T19:12:40.834Z,55.63
2019-01-16T19:15:23.457Z,62.17
2019-01-16T19:17:56.077Z,26.60
2019-01-16T19:20:26.684Z,30.77
2019-01-16T19:23:08.402Z,28.40
2019-01-16T19:25:40.906Z,28.57
2019-01-16T19:28:13.390Z,34.45
2019-01-16T19:30:47.023Z,22.98
2019-01-16T19:33:28.687Z,32.65
2019-01-16T19:36:08.655Z,24.07
2019-01-16T19:38:56.518Z,19.80
2019-01-16T19:41:45.280Z,25.92
2019-01-16T19:44:17.916Z,26.30
2019-01-16T19:46:53.214Z,36.80
2019-01-16T19:49:25.707Z,39.95
2019-01-16T19:51:58.238Z,35.08
2019-01-16T19:54:34.026Z,33.23
2019-01-16T19:57:18.601Z,22.62
2019-01-16T19:59:51.276Z,13.70
2019-01-16T20:02:43.452Z,15.35
2019-01-16T20:05:17.036Z,18.70
2019-01-16T20:07:58.736Z,19.85
2019-01-16T20:10:45.796Z,15.28
2019-01-16T20:13:18.265Z,13.35
2019-01-16T20:15:53.912Z,8.45
2019-01-16T20:18:42.702Z,8.20
2019-01-16T20:21:19.164Z,7.33
2019-01-16T20:23:51.691Z,7.28
2019-01-16T20:26:40.471Z,16.82
2019-01-16T20:29:18.967Z,22.17
2019-01-16T20:32:03.617Z,20.52
2019-01-16T20:34:52.339Z,20.30
2019-01-16T20:37:27.251Z,14.33
2019-01-16T20:40:08.775Z,9.80
2019-01-16T20:42:41.227Z,5.30
2019-01-16T20:45:19.450Z,5.25
2019-01-16T20:47:59.527Z,21.80
2019-01-16T20:50:47.189Z,7.25
2019-01-16T20:53:22.513Z,5.05
2019-01-16T20:55:55.071Z,3.40
2019-01-16T20:58:31.602Z,2.45
2019-01-16T21:01:10.035Z,8.48
2019-01-16T21:03:59.146Z,3.08
2019-01-16T21:06:29.848Z,2.40
2019-01-16T21:09:02.368Z,1.42
2019-01-16T21:11:36.071Z,2.42
2019-01-16T21:14:15.028Z,6.62
2019-01-16T21:16:58.107Z,2.72
2019-01-16T21:19:33.595Z,2.65
2019-01-16T21:22:15.226Z,1.42
2019-01-16T21:24:48.757Z,1.37
2019-01-16T21:27:36.909Z,1.25
2019-01-16T21:30:28.768Z,2.05
2019-01-16T21:33:17.184Z,4.25
2019-01-16T21:35:49.643Z,3.12
2019-01-16T21:38:23.755Z,62.08
2019-01-16T21:40:57.254Z,1.57
2019-01-16T21:43:35.681Z,1.52
2019-01-16T21:46:21.799Z,3.45
2019-01-16T21:48:54.330Z,1.45
2019-01-16T21:51:26.856Z,1.92
2019-01-16T21:54:15.245Z,5.22
2019-01-16T21:56:48.468Z,2.33
2019-01-16T21:59:25.130Z,2.98
2019-01-16T22:02:03.571Z,1.95
2019-01-16T22:04:36.238Z,2.50
2019-01-16T22:07:11.970Z,3.77
2019-01-16T22:09:47.215Z,4.22
2019-01-16T22:12:17.921Z,2.72
2019-01-16T22:14:59.447Z,1.30
2019-01-16T22:17:50.039Z,1.55
2019-01-16T22:20:31.870Z,5.25
2019-01-16T22:23:25.184Z,7.55
2019-01-16T22:25:57.748Z,4.62
2019-01-16T22:28:40.159Z,4.00
2019-01-16T22:31:27.766Z,2.87
2019-01-16T22:34:00.376Z,4.83
2019-01-16T22:36:46.565Z,20.97
2019-01-16T22:39:21.750Z,6.97
2019-01-16T22:41:54.283Z,7.87
2019-01-16T22:44:26.715Z,9.28
2019-01-16T22:46:59.350Z,12.55
2019-01-16T22:49:48.357Z,11.03
2019-01-16T22:52:20.900Z,8.28
2019-01-16T22:54:53.409Z,10.35
2019-01-16T22:57:30.019Z,5.70
2019-01-16T23:00:02.532Z,3.37
2019-01-16T23:02:42.652Z,10.63
2019-01-16T23:05:18.279Z,4.30
2019-01-16T23:07:56.752Z,1.27
2019-01-16T23:10:29.265Z,1.50
2019-01-16T23:13:07.661Z,0.70
2019-01-16T23:15:40.210Z,1.65
2019-01-16T23:18:29.194Z,1.37
2019-01-16T23:21:01.681Z,3.62
2019-01-16T23:23:37.174Z,2.75
2019-01-16T23:26:15.959Z,1.85
2019-01-16T23:28:54.775Z,1.30
2019-01-16T23:31:28.367Z,1.40
2019-01-16T23:34:18.236Z,1.75
2019-01-16T23:36:53.484Z,1.50
2019-01-16T23:39:32.156Z,1.10
2019-01-16T23:42:04.656Z,2.05
2019-01-16T23:44:37.252Z,0.80
2019-01-16T23:47:12.493Z,0.90
2019-01-16T23:49:48.983Z,0.93
2019-01-16T23:52:24.526Z,0.93
2019-01-16T23:55:05.856Z,1.25
2019-01-16T23:57:56.849Z,1.80
